sensor_id;sensor_type;location;lat;lon;timestamp;temperature;humidity
78522;SHT31;67819;51.972;5.678;2023-07-13T00:01:15;18.9;62.4
78522;SHT31;67819;51.972;5.678;2023-07-13T00:03:44;18.9;62.7
78522;SHT31;67819;51.972;5.678;2023-07-13T00:06:14;18.8;62.6
78522;SHT31;67819;51.972;5.678;2023-07-13T00:08:43;18.8;62.7
78522;SHT31;67819;51.972;5.678;2023-07-13T00:11:12;18.8;62.8
78522;SHT31;67819;51.972;5.678;2023-07-13T00:13:41;18.8;62.5
78522;SHT31;67819;51.972;5.678;2023-07-13T00:16:11;18.7;62.3
78522;SHT31;67819;51.972;5.678;2023-07-13T00:18:42;18.7;62.6
78522;SHT31;67819;51.972;5.678;2023-07-13T00:21:11;18.6;62.4
78522;SHT31;67819;51.972;5.678;2023-07-13T00:23:42;18.6;62.8
78522;SHT31;67819;51.972;5.678;2023-07-13T00:26:12;18.6;63.2
78522;SHT31;67819;51.972;5.678;2023-07-13T00:28:40;18.5;63.4
78522;SHT31;67819;51.972;5.678;2023-07-13T00:31:10;18.5;63.8
78522;SHT31;67819;51.972;5.678;2023-07-13T00:33:40;18.5;63.3
78522;SHT31;67819;51.972;5.678;2023-07-13T00:36:10;18.5;64.0
78522;SHT31;67819;51.972;5.678;2023-07-13T00:38:39;18.4;63.7
78522;SHT31;67819;51.972;5.678;2023-07-13T00:41:09;18.4;63.8
78522;SHT31;67819;51.972;5.678;2023-07-13T00:43:38;18.4;64.2
78522;SHT31;67819;51.972;5.678;2023-07-13T00:46:21;18.4;63.8
78522;SHT31;67819;51.972;5.678;2023-07-13T00:48:52;18.3;63.8
78522;SHT31;67819;51.972;5.678;2023-07-13T00:51:26;18.3;63.9
78522;SHT31;67819;51.972;5.678;2023-07-13T00:53:58;18.3;64.2
78522;SHT31;67819;51.972;5.678;2023-07-13T00:56:28;18.3;64.1
78522;SHT31;67819;51.972;5.678;2023-07-13T00:59:00;18.3;64.4
78522;SHT31;67819;51.972;5.678;2023-07-13T01:01:29;18.2;64.6
78522;SHT31;67819;51.972;5.678;2023-07-13T01:03:57;18.2;64.3
78522;SHT31;67819;51.972;5.678;2023-07-13T01:06:26;18.2;64.4
78522;SHT31;67819;51.972;5.678;2023-07-13T01:08:56;18.1;64.5
78522;SHT31;67819;51.972;5.678;2023-07-13T01:11:26;18.1;64.2
78522;SHT31;67819;51.972;5.678;2023-07-13T01:13:55;18.1;64.6
78522;SHT31;67819;51.972;5.678;2023-07-13T01:16:26;18.1;65.1
78522;SHT31;67819;51.972;5.678;2023-07-13T01:18:57;18.1;64.9
78522;SHT31;67819;51.972;5.678;2023-07-13T01:21:31;18.0;64.9
78522;SHT31;67819;51.972;5.678;2023-07-13T01:24:01;18.0;64.9
78522;SHT31;67819;51.972;5.678;2023-07-13T01:26:30;18.0;65.1
78522;SHT31;67819;51.972;5.678;2023-07-13T01:28:59;18.0;65.3
78522;SHT31;67819;51.972;5.678;2023-07-13T01:31:28;18.0;65.0
78522;SHT31;67819;51.972;5.678;2023-07-13T01:33:56;18.0;65.2
78522;SHT31;67819;51.972;5.678;2023-07-13T01:36:26;18.0;65.0
78522;SHT31;67819;51.972;5.678;2023-07-13T01:38:54;17.9;65.0
78522;SHT31;67819;51.972;5.678;2023-07-13T01:41:23;17.9;65.5
78522;SHT31;67819;51.972;5.678;2023-07-13T01:43:52;17.9;65.8
78522;SHT31;67819;51.972;5.678;2023-07-13T01:46:20;17.9;65.0
78522;SHT31;67819;51.972;5.678;2023-07-13T01:48:50;17.8;65.0
78522;SHT31;67819;51.972;5.678;2023-07-13T01:51:20;17.8;65.4
78522;SHT31;67819;51.972;5.678;2023-07-13T01:53:49;17.8;65.6
78522;SHT31;67819;51.972;5.678;2023-07-13T01:56:18;17.8;65.6
78522;SHT31;67819;51.972;5.678;2023-07-13T01:58:48;17.7;65.4
78522;SHT31;67819;51.972;5.678;2023-07-13T02:01:18;17.7;66.0
78522;SHT31;67819;51.972;5.678;2023-07-13T02:03:47;17.7;65.9
78522;SHT31;67819;51.972;5.678;2023-07-13T02:06:15;17.6;66.3
78522;SHT31;67819;51.972;5.678;2023-07-13T02:08:44;17.6;66.1
78522;SHT31;67819;51.972;5.678;2023-07-13T02:11:13;17.6;66.2
78522;SHT31;67819;51.972;5.678;2023-07-13T02:13:41;17.6;65.9
78522;SHT31;67819;51.972;5.678;2023-07-13T02:16:10;17.5;66.0
78522;SHT31;67819;51.972;5.678;2023-07-13T02:18:38;17.5;66.0
78522;SHT31;67819;51.972;5.678;2023-07-13T02:21:07;17.5;66.3
78522;SHT31;67819;51.972;5.678;2023-07-13T02:23:36;17.5;66.5
78522;SHT31;67819;51.972;5.678;2023-07-13T02:26:04;17.5;66.7
78522;SHT31;67819;51.972;5.678;2023-07-13T02:28:33;17.4;66.6
78522;SHT31;67819;51.972;5.678;2023-07-13T02:31:09;17.4;67.0
78522;SHT31;67819;51.972;5.678;2023-07-13T02:33:39;17.4;67.0
78522;SHT31;67819;51.972;5.678;2023-07-13T02:36:08;17.4;67.4
78522;SHT31;67819;51.972;5.678;2023-07-13T02:38:37;17.4;67.2
78522;SHT31;67819;51.972;5.678;2023-07-13T02:41:07;17.3;67.5
78522;SHT31;67819;51.972;5.678;2023-07-13T02:43:37;17.3;67.8
78522;SHT31;67819;51.972;5.678;2023-07-13T02:46:06;17.3;67.9
78522;SHT31;67819;51.972;5.678;2023-07-13T02:48:36;17.3;68.1
78522;SHT31;67819;51.972;5.678;2023-07-13T02:51:06;17.3;67.7
78522;SHT31;67819;51.972;5.678;2023-07-13T02:53:35;17.2;68.1
78522;SHT31;67819;51.972;5.678;2023-07-13T02:56:05;17.2;68.0
78522;SHT31;67819;51.972;5.678;2023-07-13T02:58:34;17.2;68.1
78522;SHT31;67819;51.972;5.678;2023-07-13T03:01:09;17.2;68.1
78522;SHT31;67819;51.972;5.678;2023-07-13T03:03:38;17.1;68.4
78522;SHT31;67819;51.972;5.678;2023-07-13T03:06:07;17.1;68.8
78522;SHT31;67819;51.972;5.678;2023-07-13T03:08:35;17.1;68.9
78522;SHT31;67819;51.972;5.678;2023-07-13T03:11:07;17.1;69.0
78522;SHT31;67819;51.972;5.678;2023-07-13T03:13:37;17.0;69.1
78522;SHT31;67819;51.972;5.678;2023-07-13T03:16:06;17.0;69.3
78522;SHT31;67819;51.972;5.678;2023-07-13T03:18:36;17.0;69.6
78522;SHT31;67819;51.972;5.678;2023-07-13T03:21:06;17.0;69.6
78522;SHT31;67819;51.972;5.678;2023-07-13T03:23:34;16.9;69.9
78522;SHT31;67819;51.972;5.678;2023-07-13T03:26:05;16.9;69.9
78522;SHT31;67819;51.972;5.678;2023-07-13T03:28:35;16.9;70.3
78522;SHT31;67819;51.972;5.678;2023-07-13T03:31:06;16.9;70.0
78522;SHT31;67819;51.972;5.678;2023-07-13T03:33:38;16.9;70.5
78522;SHT31;67819;51.972;5.678;2023-07-13T03:36:12;16.9;70.3
78522;SHT31;67819;51.972;5.678;2023-07-13T03:38:44;16.8;70.5
78522;SHT31;67819;51.972;5.678;2023-07-13T03:41:12;16.8;70.6
78522;SHT31;67819;51.972;5.678;2023-07-13T03:43:41;16.8;70.8
78522;SHT31;67819;51.972;5.678;2023-07-13T03:46:10;16.8;71.0
78522;SHT31;67819;51.972;5.678;2023-07-13T03:48:39;16.8;70.9
78522;SHT31;67819;51.972;5.678;2023-07-13T03:51:11;16.8;71.0
78522;SHT31;67819;51.972;5.678;2023-07-13T03:53:42;16.8;71.4
78522;SHT31;67819;51.972;5.678;2023-07-13T03:56:12;16.8;71.8
78522;SHT31;67819;51.972;5.678;2023-07-13T03:58:43;16.8;71.3
78522;SHT31;67819;51.972;5.678;2023-07-13T04:01:14;16.8;71.4
78522;SHT31;67819;51.972;5.678;2023-07-13T04:03:43;16.8;71.4
78522;SHT31;67819;51.972;5.678;2023-07-13T04:06:17;16.8;71.5
78522;SHT31;67819;51.972;5.678;2023-07-13T04:08:50;16.8;71.4
78522;SHT31;67819;51.972;5.678;2023-07-13T04:11:21;16.8;71.6
78522;SHT31;67819;51.972;5.678;2023-07-13T04:13:50;16.8;71.6
78522;SHT31;67819;51.972;5.678;2023-07-13T04:16:22;16.8;71.6
78522;SHT31;67819;51.972;5.678;2023-07-13T04:18:51;16.8;71.8
78522;SHT31;67819;51.972;5.678;2023-07-13T04:21:23;16.8;71.9
78522;SHT31;67819;51.972;5.678;2023-07-13T04:23:52;16.8;72.0
78522;SHT31;67819;51.972;5.678;2023-07-13T04:26:21;16.8;72.0
78522;SHT31;67819;51.972;5.678;2023-07-13T04:28:51;16.8;72.2
78522;SHT31;67819;51.972;5.678;2023-07-13T04:31:20;16.7;72.2
78522;SHT31;67819;51.972;5.678;2023-07-13T04:33:49;16.8;72.3
78522;SHT31;67819;51.972;5.678;2023-07-13T04:36:19;16.8;72.3
78522;SHT31;67819;51.972;5.678;2023-07-13T04:38:50;16.8;72.3
78522;SHT31;67819;51.972;5.678;2023-07-13T04:41:21;16.8;72.2
78522;SHT31;67819;51.972;5.678;2023-07-13T04:43:50;16.8;72.2
78522;SHT31;67819;51.972;5.678;2023-07-13T04:46:18;16.9;72.4
78522;SHT31;67819;51.972;5.678;2023-07-13T04:48:49;16.9;72.3
78522;SHT31;67819;51.972;5.678;2023-07-13T04:51:20;16.9;72.1
78522;SHT31;67819;51.972;5.678;2023-07-13T04:53:48;16.9;72.1
78522;SHT31;67819;51.972;5.678;2023-07-13T04:56:17;16.9;72.1
78522;SHT31;67819;51.972;5.678;2023-07-13T04:58:46;17.0;72.3
78522;SHT31;67819;51.972;5.678;2023-07-13T05:01:14;17.0;72.1
78522;SHT31;67819;51.972;5.678;2023-07-13T05:03:43;17.0;72.1
78522;SHT31;67819;51.972;5.678;2023-07-13T05:06:11;17.1;71.6
78522;SHT31;67819;51.972;5.678;2023-07-13T05:08:40;17.1;71.8
78522;SHT31;67819;51.972;5.678;2023-07-13T05:11:09;17.1;71.8
78522;SHT31;67819;51.972;5.678;2023-07-13T05:13:37;17.1;72.3
78522;SHT31;67819;51.972;5.678;2023-07-13T05:16:06;17.2;72.4
78522;SHT31;67819;51.972;5.678;2023-07-13T05:18:36;17.2;72.4
78522;SHT31;67819;51.972;5.678;2023-07-13T05:21:07;17.3;72.0
78522;SHT31;67819;51.972;5.678;2023-07-13T05:23:36;17.3;71.8
78522;SHT31;67819;51.972;5.678;2023-07-13T05:26:05;17.3;72.1
78522;SHT31;67819;51.972;5.678;2023-07-13T05:28:33;17.4;72.1
78522;SHT31;67819;51.972;5.678;2023-07-13T05:31:03;17.4;72.1
78522;SHT31;67819;51.972;5.678;2023-07-13T05:33:33;17.5;72.2
78522;SHT31;67819;51.972;5.678;2023-07-13T05:36:02;17.5;72.3
78522;SHT31;67819;51.972;5.678;2023-07-13T05:38:31;17.5;72.2
78522;SHT31;67819;51.972;5.678;2023-07-13T05:41:01;17.6;72.2
78522;SHT31;67819;51.972;5.678;2023-07-13T05:43:30;17.6;72.1
78522;SHT31;67819;51.972;5.678;2023-07-13T05:45:59;17.6;72.5
78522;SHT31;67819;51.972;5.678;2023-07-13T05:48:27;17.7;72.3
78522;SHT31;67819;51.972;5.678;2023-07-13T05:50:56;17.8;72.0
78522;SHT31;67819;51.972;5.678;2023-07-13T05:53:24;17.8;71.8
78522;SHT31;67819;51.972;5.678;2023-07-13T05:55:54;17.8;71.9
78522;SHT31;67819;51.972;5.678;2023-07-13T05:58:23;17.9;71.7
78522;SHT31;67819;51.972;5.678;2023-07-13T06:01:03;17.9;71.6
78522;SHT31;67819;51.972;5.678;2023-07-13T06:03:33;18.0;71.9
78522;SHT31;67819;51.972;5.678;2023-07-13T06:06:02;18.0;71.8
78522;SHT31;67819;51.972;5.678;2023-07-13T06:08:31;18.0;72.1
78522;SHT31;67819;51.972;5.678;2023-07-13T06:11:08;18.0;72.3
78522;SHT31;67819;51.972;5.678;2023-07-13T06:13:38;18.1;72.6
78522;SHT31;67819;51.972;5.678;2023-07-13T06:16:07;18.1;72.7
78522;SHT31;67819;51.972;5.678;2023-07-13T06:18:37;18.1;72.7
78522;SHT31;67819;51.972;5.678;2023-07-13T06:21:11;18.2;73.1
78522;SHT31;67819;51.972;5.678;2023-07-13T06:23:40;18.2;72.9
78522;SHT31;67819;51.972;5.678;2023-07-13T06:26:10;18.3;72.7
78522;SHT31;67819;51.972;5.678;2023-07-13T06:28:39;18.4;72.8
78522;SHT31;67819;51.972;5.678;2023-07-13T06:31:10;18.4;72.2
78522;SHT31;67819;51.972;5.678;2023-07-13T06:33:39;18.5;72.0
78522;SHT31;67819;51.972;5.678;2023-07-13T06:36:08;18.5;72.3
78522;SHT31;67819;51.972;5.678;2023-07-13T06:38:37;18.6;72.3
78522;SHT31;67819;51.972;5.678;2023-07-13T06:41:08;18.7;72.2
78522;SHT31;67819;51.972;5.678;2023-07-13T06:43:36;18.8;72.0
78522;SHT31;67819;51.972;5.678;2023-07-13T06:46:05;18.8;71.9
78522;SHT31;67819;51.972;5.678;2023-07-13T06:48:34;18.9;71.8
78522;SHT31;67819;51.972;5.678;2023-07-13T06:51:03;19.1;71.3
78522;SHT31;67819;51.972;5.678;2023-07-13T06:53:34;19.2;70.6
78522;SHT31;67819;51.972;5.678;2023-07-13T06:56:03;19.3;69.7
78522;SHT31;67819;51.972;5.678;2023-07-13T06:58:34;19.3;69.1
78522;SHT31;67819;51.972;5.678;2023-07-13T07:01:03;19.4;69.6
78522;SHT31;67819;51.972;5.678;2023-07-13T07:03:32;19.4;69.2
78522;SHT31;67819;51.972;5.678;2023-07-13T07:06:15;19.5;68.8
78522;SHT31;67819;51.972;5.678;2023-07-13T07:08:44;19.5;68.7
78522;SHT31;67819;51.972;5.678;2023-07-13T07:11:17;19.5;68.8
78522;SHT31;67819;51.972;5.678;2023-07-13T07:13:46;19.6;68.8
78522;SHT31;67819;51.972;5.678;2023-07-13T07:16:14;19.6;68.7
78522;SHT31;67819;51.972;5.678;2023-07-13T07:18:44;19.6;68.8
78522;SHT31;67819;51.972;5.678;2023-07-13T07:21:14;19.7;68.3
78522;SHT31;67819;51.972;5.678;2023-07-13T07:23:43;19.7;67.7
78522;SHT31;67819;51.972;5.678;2023-07-13T07:26:12;19.7;67.7
78522;SHT31;67819;51.972;5.678;2023-07-13T07:28:40;19.7;67.6
78522;SHT31;67819;51.972;5.678;2023-07-13T07:31:09;19.7;68.2
78522;SHT31;67819;51.972;5.678;2023-07-13T07:33:38;19.7;67.5
78522;SHT31;67819;51.972;5.678;2023-07-13T07:36:07;19.7;68.3
78522;SHT31;67819;51.972;5.678;2023-07-13T07:38:35;19.8;68.1
78522;SHT31;67819;51.972;5.678;2023-07-13T07:41:05;19.8;67.9
78522;SHT31;67819;51.972;5.678;2023-07-13T07:43:34;19.8;68.3
78522;SHT31;67819;51.972;5.678;2023-07-13T07:46:04;19.9;67.8
78522;SHT31;67819;51.972;5.678;2023-07-13T07:48:32;19.9;67.7
78522;SHT31;67819;51.972;5.678;2023-07-13T07:51:01;19.9;67.0
78522;SHT31;67819;51.972;5.678;2023-07-13T07:53:30;19.9;66.7
78522;SHT31;67819;51.972;5.678;2023-07-13T07:55:58;19.9;66.7
78522;SHT31;67819;51.972;5.678;2023-07-13T07:58:29;20.0;66.8
78522;SHT31;67819;51.972;5.678;2023-07-13T08:01:04;20.0;66.6
78522;SHT31;67819;51.972;5.678;2023-07-13T08:03:33;20.0;66.6
78522;SHT31;67819;51.972;5.678;2023-07-13T08:06:01;20.1;66.5
78522;SHT31;67819;51.972;5.678;2023-07-13T08:08:30;20.2;66.5
78522;SHT31;67819;51.972;5.678;2023-07-13T08:11:02;20.2;66.6
78522;SHT31;67819;51.972;5.678;2023-07-13T08:13:31;20.3;66.5
78522;SHT31;67819;51.972;5.678;2023-07-13T08:16:00;20.4;66.5
78522;SHT31;67819;51.972;5.678;2023-07-13T08:18:31;20.5;65.8
78522;SHT31;67819;51.972;5.678;2023-07-13T08:21:02;20.6;64.9
78522;SHT31;67819;51.972;5.678;2023-07-13T08:23:31;20.6;64.6
78522;SHT31;67819;51.972;5.678;2023-07-13T08:26:01;20.7;64.9
78522;SHT31;67819;51.972;5.678;2023-07-13T08:28:31;20.7;64.3
78522;SHT31;67819;51.972;5.678;2023-07-13T08:31:02;20.8;63.6
78522;SHT31;67819;51.972;5.678;2023-07-13T08:33:31;20.8;64.0
78522;SHT31;67819;51.972;5.678;2023-07-13T08:36:00;20.8;63.8
78522;SHT31;67819;51.972;5.678;2023-07-13T08:38:30;20.8;63.1
78522;SHT31;67819;51.972;5.678;2023-07-13T08:40:59;20.8;63.1
78522;SHT31;67819;51.972;5.678;2023-07-13T08:43:30;20.8;63.4
78522;SHT31;67819;51.972;5.678;2023-07-13T08:46:02;20.9;61.5
78522;SHT31;67819;51.972;5.678;2023-07-13T08:48:37;20.8;60.9
78522;SHT31;67819;51.972;5.678;2023-07-13T08:51:23;20.8;60.9
78522;SHT31;67819;51.972;5.678;2023-07-13T08:53:57;20.9;61.2
78522;SHT31;67819;51.972;5.678;2023-07-13T08:56:31;20.9;61.2
78522;SHT31;67819;51.972;5.678;2023-07-13T08:59:04;21.0;59.7
78522;SHT31;67819;51.972;5.678;2023-07-13T09:01:52;21.0;60.6
78522;SHT31;67819;51.972;5.678;2023-07-13T09:04:27;21.1;59.0
78522;SHT31;67819;51.972;5.678;2023-07-13T09:07:04;21.2;59.2
78522;SHT31;67819;51.972;5.678;2023-07-13T09:09:45;21.2;59.6
78522;SHT31;67819;51.972;5.678;2023-07-13T09:12:25;21.3;59.1
78522;SHT31;67819;51.972;5.678;2023-07-13T09:14:58;21.3;58.8
78522;SHT31;67819;51.972;5.678;2023-07-13T09:17:32;21.2;58.8
78522;SHT31;67819;51.972;5.678;2023-07-13T09:20:09;21.2;59.9
78522;SHT31;67819;51.972;5.678;2023-07-13T09:22:39;21.1;60.8
78522;SHT31;67819;51.972;5.678;2023-07-13T09:25:21;21.0;61.1
78522;SHT31;67819;51.972;5.678;2023-07-13T09:27:56;21.0;63.7
78522;SHT31;67819;51.972;5.678;2023-07-13T09:30:32;20.9;63.8
78522;SHT31;67819;51.972;5.678;2023-07-13T09:33:02;20.8;64.3
78522;SHT31;67819;51.972;5.678;2023-07-13T09:35:31;20.7;65.7
78522;SHT31;67819;51.972;5.678;2023-07-13T09:38:12;20.6;66.8
78522;SHT31;67819;51.972;5.678;2023-07-13T09:40:46;20.5;66.8
78522;SHT31;67819;51.972;5.678;2023-07-13T09:43:17;20.5;67.0
78522;SHT31;67819;51.972;5.678;2023-07-13T09:45:47;20.5;66.1
78522;SHT31;67819;51.972;5.678;2023-07-13T09:48:17;20.4;66.2
78522;SHT31;67819;51.972;5.678;2023-07-13T09:50:46;20.4;65.3
78522;SHT31;67819;51.972;5.678;2023-07-13T09:53:17;20.4;65.5
78522;SHT31;67819;51.972;5.678;2023-07-13T09:55:47;20.4;65.5
78522;SHT31;67819;51.972;5.678;2023-07-13T09:58:19;20.4;65.1
78522;SHT31;67819;51.972;5.678;2023-07-13T10:00:56;20.4;65.4
78522;SHT31;67819;51.972;5.678;2023-07-13T10:03:27;20.5;66.1
78522;SHT31;67819;51.972;5.678;2023-07-13T10:06:09;20.6;64.1
78522;SHT31;67819;51.972;5.678;2023-07-13T10:08:35;20.7;63.0
78522;SHT31;67819;51.972;5.678;2023-07-13T10:11:12;20.8;62.3
78522;SHT31;67819;51.972;5.678;2023-07-13T10:13:46;20.9;62.1
78522;SHT31;67819;51.972;5.678;2023-07-13T10:16:17;21.0;61.7
78522;SHT31;67819;51.972;5.678;2023-07-13T10:18:49;21.1;62.3
78522;SHT31;67819;51.972;5.678;2023-07-13T10:21:20;21.2;61.7
78522;SHT31;67819;51.972;5.678;2023-07-13T10:23:55;21.2;62.0
78522;SHT31;67819;51.972;5.678;2023-07-13T10:26:31;21.1;63.0
78522;SHT31;67819;51.972;5.678;2023-07-13T10:29:05;21.1;63.0
78522;SHT31;67819;51.972;5.678;2023-07-13T10:31:38;21.1;65.0
78522;SHT31;67819;51.972;5.678;2023-07-13T10:34:11;21.1;63.8
78522;SHT31;67819;51.972;5.678;2023-07-13T10:36:43;21.1;63.8
78522;SHT31;67819;51.972;5.678;2023-07-13T10:39:17;21.2;62.8
78522;SHT31;67819;51.972;5.678;2023-07-13T10:41:52;21.3;62.5
78522;SHT31;67819;51.972;5.678;2023-07-13T10:44:25;21.4;60.2
78522;SHT31;67819;51.972;5.678;2023-07-13T10:47:00;21.5;59.7
78522;SHT31;67819;51.972;5.678;2023-07-13T10:49:31;21.6;57.7
78522;SHT31;67819;51.972;5.678;2023-07-13T10:52:02;21.7;56.0
78522;SHT31;67819;51.972;5.678;2023-07-13T10:54:33;21.8;55.4
78522;SHT31;67819;51.972;5.678;2023-07-13T10:57:15;21.9;56.0
78522;SHT31;67819;51.972;5.678;2023-07-13T10:59:47;22.0;56.4
78522;SHT31;67819;51.972;5.678;2023-07-13T11:02:22;22.2;55.4
78522;SHT31;67819;51.972;5.678;2023-07-13T11:04:53;22.3;56.2
78522;SHT31;67819;51.972;5.678;2023-07-13T11:07:25;22.3;57.8
78522;SHT31;67819;51.972;5.678;2023-07-13T11:09:56;22.4;57.5
78522;SHT31;67819;51.972;5.678;2023-07-13T11:12:52;22.4;52.7
78522;SHT31;67819;51.972;5.678;2023-07-13T11:15:45;22.4;53.5
78522;SHT31;67819;51.972;5.678;2023-07-13T11:18:23;22.4;54.2
78522;SHT31;67819;51.972;5.678;2023-07-13T11:21:14;22.4;55.4
78522;SHT31;67819;51.972;5.678;2023-07-13T11:23:45;22.4;54.5
78522;SHT31;67819;51.972;5.678;2023-07-13T11:26:40;22.4;56.3
78522;SHT31;67819;51.972;5.678;2023-07-13T11:29:24;22.4;56.0
78522;SHT31;67819;51.972;5.678;2023-07-13T11:31:55;22.5;54.7
78522;SHT31;67819;51.972;5.678;2023-07-13T11:34:29;22.6;54.0
78522;SHT31;67819;51.972;5.678;2023-07-13T11:37:00;22.7;53.8
78522;SHT31;67819;51.972;5.678;2023-07-13T11:39:32;22.7;54.3
78522;SHT31;67819;51.972;5.678;2023-07-13T11:42:04;22.7;54.9
78522;SHT31;67819;51.972;5.678;2023-07-13T11:44:35;22.7;54.1
78522;SHT31;67819;51.972;5.678;2023-07-13T11:47:14;22.7;54.5
78522;SHT31;67819;51.972;5.678;2023-07-13T11:49:45;22.7;54.8
78522;SHT31;67819;51.972;5.678;2023-07-13T11:52:21;22.7;55.5
78522;SHT31;67819;51.972;5.678;2023-07-13T11:54:52;22.6;55.8
78522;SHT31;67819;51.972;5.678;2023-07-13T11:57:28;22.6;55.5
78522;SHT31;67819;51.972;5.678;2023-07-13T12:00:02;22.6;54.6
78522;SHT31;67819;51.972;5.678;2023-07-13T12:02:36;22.6;54.0
78522;SHT31;67819;51.972;5.678;2023-07-13T12:05:09;22.6;54.5
78522;SHT31;67819;51.972;5.678;2023-07-13T12:07:39;22.7;53.9
78522;SHT31;67819;51.972;5.678;2023-07-13T12:10:19;22.7;52.8
78522;SHT31;67819;51.972;5.678;2023-07-13T12:12:52;22.8;52.4
78522;SHT31;67819;51.972;5.678;2023-07-13T12:15:22;22.9;51.2
78522;SHT31;67819;51.972;5.678;2023-07-13T12:17:52;23.0;52.7
78522;SHT31;67819;51.972;5.678;2023-07-13T12:20:25;23.0;53.2
78522;SHT31;67819;51.972;5.678;2023-07-13T12:22:54;23.1;53.7
78522;SHT31;67819;51.972;5.678;2023-07-13T12:25:24;23.2;53.0
78522;SHT31;67819;51.972;5.678;2023-07-13T12:27:53;23.3;52.3
78522;SHT31;67819;51.972;5.678;2023-07-13T12:30:29;23.3;50.1
78522;SHT31;67819;51.972;5.678;2023-07-13T12:33:06;23.4;50.1
78522;SHT31;67819;51.972;5.678;2023-07-13T12:35:44;23.4;50.3
78522;SHT31;67819;51.972;5.678;2023-07-13T12:38:15;23.4;49.7
78522;SHT31;67819;51.972;5.678;2023-07-13T12:40:44;23.5;47.7
78522;SHT31;67819;51.972;5.678;2023-07-13T12:43:14;23.6;48.2
78522;SHT31;67819;51.972;5.678;2023-07-13T12:45:56;23.6;47.4
78522;SHT31;67819;51.972;5.678;2023-07-13T12:48:25;23.7;46.4
78522;SHT31;67819;51.972;5.678;2023-07-13T12:50:56;23.7;47.5
78522;SHT31;67819;51.972;5.678;2023-07-13T12:53:30;23.8;47.7
78522;SHT31;67819;51.972;5.678;2023-07-13T12:56:02;23.9;46.7
78522;SHT31;67819;51.972;5.678;2023-07-13T12:58:35;23.9;47.9
78522;SHT31;67819;51.972;5.678;2023-07-13T13:01:05;23.9;46.8
78522;SHT31;67819;51.972;5.678;2023-07-13T13:03:37;24.0;46.8
78522;SHT31;67819;51.972;5.678;2023-07-13T13:06:21;24.0;46.7
78522;SHT31;67819;51.972;5.678;2023-07-13T13:08:53;24.1;46.5
78522;SHT31;67819;51.972;5.678;2023-07-13T13:11:24;24.1;47.0
78522;SHT31;67819;51.972;5.678;2023-07-13T13:13:53;24.2;47.5
78522;SHT31;67819;51.972;5.678;2023-07-13T13:16:30;24.3;46.0
78522;SHT31;67819;51.972;5.678;2023-07-13T13:19:05;24.4;47.7
78522;SHT31;67819;51.972;5.678;2023-07-13T13:21:34;24.7;47.6
78522;SHT31;67819;51.972;5.678;2023-07-13T13:24:07;25.0;44.8
78522;SHT31;67819;51.972;5.678;2023-07-13T13:26:37;25.2;44.4
78522;SHT31;67819;51.972;5.678;2023-07-13T13:29:10;25.3;44.2
78522;SHT31;67819;51.972;5.678;2023-07-13T13:31:40;25.5;43.4
78522;SHT31;67819;51.972;5.678;2023-07-13T13:34:10;25.5;43.2
78522;SHT31;67819;51.972;5.678;2023-07-13T13:36:40;25.5;43.5
78522;SHT31;67819;51.972;5.678;2023-07-13T13:39:20;25.6;42.2
78522;SHT31;67819;51.972;5.678;2023-07-13T13:41:51;25.6;42.9
78522;SHT31;67819;51.972;5.678;2023-07-13T13:44:22;25.7;42.7
78522;SHT31;67819;51.972;5.678;2023-07-13T13:46:54;25.8;42.8
78522;SHT31;67819;51.972;5.678;2023-07-13T13:49:26;25.8;42.7
78522;SHT31;67819;51.972;5.678;2023-07-13T13:51:58;25.8;43.2
78522;SHT31;67819;51.972;5.678;2023-07-13T13:54:28;25.9;42.6
78522;SHT31;67819;51.972;5.678;2023-07-13T13:56:57;26.1;43.1
78522;SHT31;67819;51.972;5.678;2023-07-13T13:59:26;26.3;42.9
78522;SHT31;67819;51.972;5.678;2023-07-13T14:01:54;26.5;42.0
78522;SHT31;67819;51.972;5.678;2023-07-13T14:04:26;26.6;41.9
78522;SHT31;67819;51.972;5.678;2023-07-13T14:06:55;26.7;41.1
78522;SHT31;67819;51.972;5.678;2023-07-13T14:09:24;26.7;40.5
78522;SHT31;67819;51.972;5.678;2023-07-13T14:11:52;26.6;40.8
78522;SHT31;67819;51.972;5.678;2023-07-13T14:14:24;26.5;41.6
78522;SHT31;67819;51.972;5.678;2023-07-13T14:16:54;26.6;40.2
78522;SHT31;67819;51.972;5.678;2023-07-13T14:19:26;26.6;38.8
78522;SHT31;67819;51.972;5.678;2023-07-13T14:21:54;26.7;40.2
78522;SHT31;67819;51.972;5.678;2023-07-13T14:24:25;26.8;38.8
78522;SHT31;67819;51.972;5.678;2023-07-13T14:26:55;26.8;39.9
78522;SHT31;67819;51.972;5.678;2023-07-13T14:29:24;26.9;40.6
78522;SHT31;67819;51.972;5.678;2023-07-13T14:31:52;27.0;40.9
78522;SHT31;67819;51.972;5.678;2023-07-13T14:34:21;27.0;40.0
78522;SHT31;67819;51.972;5.678;2023-07-13T14:36:50;27.0;39.3
78522;SHT31;67819;51.972;5.678;2023-07-13T14:39:20;26.8;39.5
78522;SHT31;67819;51.972;5.678;2023-07-13T14:41:52;26.5;40.3
78522;SHT31;67819;51.972;5.678;2023-07-13T14:44:25;26.2;40.9
78522;SHT31;67819;51.972;5.678;2023-07-13T14:46:57;26.0;42.0
78522;SHT31;67819;51.972;5.678;2023-07-13T14:49:29;25.8;42.6
78522;SHT31;67819;51.972;5.678;2023-07-13T14:52:01;25.7;42.2
78522;SHT31;67819;51.972;5.678;2023-07-13T14:54:32;25.6;42.3
78522;SHT31;67819;51.972;5.678;2023-07-13T14:57:01;25.5;42.1
78522;SHT31;67819;51.972;5.678;2023-07-13T14:59:29;25.4;41.4
78522;SHT31;67819;51.972;5.678;2023-07-13T15:01:58;25.2;41.5
78522;SHT31;67819;51.972;5.678;2023-07-13T15:04:28;25.1;42.1
78522;SHT31;67819;51.972;5.678;2023-07-13T15:06:59;25.0;42.8
78522;SHT31;67819;51.972;5.678;2023-07-13T15:09:29;25.0;42.8
78522;SHT31;67819;51.972;5.678;2023-07-13T15:11:58;24.9;42.9
78522;SHT31;67819;51.972;5.678;2023-07-13T15:14:27;24.8;42.8
78522;SHT31;67819;51.972;5.678;2023-07-13T15:16:56;24.7;43.6
78522;SHT31;67819;51.972;5.678;2023-07-13T15:19:25;24.7;43.5
78522;SHT31;67819;51.972;5.678;2023-07-13T15:21:55;24.6;43.2
78522;SHT31;67819;51.972;5.678;2023-07-13T15:24:26;24.5;43.1
78522;SHT31;67819;51.972;5.678;2023-07-13T15:26:55;24.4;43.2
78522;SHT31;67819;51.972;5.678;2023-07-13T15:29:25;24.3;43.3
78522;SHT31;67819;51.972;5.678;2023-07-13T15:31:56;24.2;43.6
78522;SHT31;67819;51.972;5.678;2023-07-13T15:34:26;24.1;44.4
78522;SHT31;67819;51.972;5.678;2023-07-13T15:36:54;24.0;44.3
78522;SHT31;67819;51.972;5.678;2023-07-13T15:39:23;23.9;44.8
78522;SHT31;67819;51.972;5.678;2023-07-13T15:41:52;23.8;45.1
78522;SHT31;67819;51.972;5.678;2023-07-13T15:44:26;23.8;46.1
78522;SHT31;67819;51.972;5.678;2023-07-13T15:46:56;23.7;45.7
78522;SHT31;67819;51.972;5.678;2023-07-13T15:49:26;23.7;45.7
78522;SHT31;67819;51.972;5.678;2023-07-13T15:51:56;23.7;47.5
78522;SHT31;67819;51.972;5.678;2023-07-13T15:54:25;23.7;49.4
78522;SHT31;67819;51.972;5.678;2023-07-13T15:56:55;23.7;50.0
78522;SHT31;67819;51.972;5.678;2023-07-13T15:59:26;23.8;50.6
78522;SHT31;67819;51.972;5.678;2023-07-13T16:01:55;23.8;50.3
78522;SHT31;67819;51.972;5.678;2023-07-13T16:04:25;23.8;51.5
78522;SHT31;67819;51.972;5.678;2023-07-13T16:06:54;23.9;51.4
78522;SHT31;67819;51.972;5.678;2023-07-13T16:09:25;24.0;49.5
78522;SHT31;67819;51.972;5.678;2023-07-13T16:11:54;24.1;48.5
78522;SHT31;67819;51.972;5.678;2023-07-13T16:14:24;24.1;46.0
78522;SHT31;67819;51.972;5.678;2023-07-13T16:16:53;24.1;45.5
78522;SHT31;67819;51.972;5.678;2023-07-13T16:19:24;24.2;45.0
78522;SHT31;67819;51.972;5.678;2023-07-13T16:21:57;24.2;43.4
78522;SHT31;67819;51.972;5.678;2023-07-13T16:24:29;24.2;43.7
78522;SHT31;67819;51.972;5.678;2023-07-13T16:27:00;24.3;43.9